Time;durP1;ratioP1;P1;durP2;ratioP2;P2;SDS_P1;SDS_P2;PMS_P1;PMS_P2;Temp;Humidity;BMP_temperature;BMP_pressure;BME280_temperature;BME280_humidity;BME280_pressure;Samples;Min_cycle;Max_cycle;Signal;HPM_P1;HPM_P2
2022/02/12 00:00:57;;;;;;;3.73;2.40;;;1.00;99.90;;;1.46;100.00;-19776.41;5050791;28;20301;-70
2022/02/12 00:03:26;;;;;;;5.67;2.70;;;1.00;99.90;;;1.45;100.00;-19776.25;5061105;28;20318;-73
2022/02/12 00:05:54;;;;;;;6.50;2.30;;;1.00;99.90;;;1.40;100.00;-19774.34;5091737;28;20301;-74
2022/02/12 00:08:22;;;;;;;10.53;3.50;;;0.90;99.90;;;1.36;100.00;-19773.16;5092853;28;20246;-75
2022/02/12 00:10:51;;;;;;;6.23;2.60;;;0.80;99.90;;;1.52;100.00;-19778.63;5091034;28;20251;-77
2022/02/12 00:13:19;;;;;;;6.37;2.87;;;0.90;99.90;;;1.39;100.00;-19774.19;5090835;28;20323;-74
2022/02/12 00:15:48;;;;;;;6.73;3.00;;;0.80;99.90;;;1.46;100.00;-19776.56;5091044;28;20289;-73
2022/02/12 00:18:17;;;;;;;4.80;3.03;;;0.80;99.90;;;1.58;100.00;-19780.50;5091500;28;20294;-71
2022/02/12 00:20:45;;;;;;;5.97;2.97;;;0.80;99.90;;;1.66;100.00;-19783.25;5091001;28;20255;-74
2022/02/12 00:23:14;;;;;;;5.60;4.40;;;0.80;99.90;;;1.64;100.00;-19782.56;5090406;28;20258;-73
2022/02/12 00:25:42;;;;;;;7.17;4.53;;;0.80;99.90;;;1.74;100.00;-19785.97;5091002;28;20674;-73
2022/02/12 00:28:10;;;;;;;7.80;4.40;;;0.90;99.90;;;1.64;100.00;-19782.56;5090866;28;20227;-72
2022/02/12 00:30:38;;;;;;;7.80;6.20;;;0.90;99.90;;;1.55;100.00;-19779.66;5090936;28;20231;-71
2022/02/12 00:33:09;;;;;;;8.67;6.23;;;0.80;99.90;;;1.45;100.00;-19776.25;5095849;28;20314;-72
2022/02/12 00:35:38;;;;;;;14.13;10.43;;;0.80;99.90;;;1.42;100.00;-19775.22;5091158;28;20220;-73
2022/02/12 00:38:06;;;;;;;19.40;15.07;;;0.70;99.90;;;1.47;100.00;-19776.75;5075119;28;20256;-72
2022/02/12 00:40:34;;;;;;;17.97;16.07;;;0.70;99.90;;;1.47;100.00;-19776.91;5071256;28;20255;-73
2022/02/12 00:43:04;;;;;;;11.83;10.33;;;0.70;99.90;;;1.42;100.00;-19775.03;5073959;28;20236;-72
2022/02/12 00:45:33;;;;;;;9.07;7.00;;;0.70;99.90;;;1.22;100.00;-19768.53;5072405;28;20432;-71
2022/02/12 00:48:01;;;;;;;6.67;5.80;;;0.60;99.90;;;1.25;100.00;-19769.56;5054726;28;20655;-71
2022/02/12 00:50:29;;;;;;;12.10;3.43;;;0.60;99.90;;;1.35;100.00;-19772.81;5054149;28;20286;-72
2022/02/12 00:52:58;;;;;;;8.13;2.83;;;0.60;99.90;;;1.15;100.00;-19766.16;5053970;28;20315;-70
2022/02/12 00:55:27;;;;;;;8.37;2.73;;;0.60;99.90;;;1.13;100.00;-19765.47;5054120;28;20644;-70
2022/02/12 00:57:55;;;;;;;7.13;2.70;;;0.50;99.90;;;1.04;100.00;-19762.22;5053895;28;20252;-73
2022/02/12 01:00:23;;;;;;;9.17;3.17;;;0.50;99.90;;;1.13;100.00;-19765.28;5054071;28;20730;-72
2022/02/12 01:02:52;;;;;;;6.40;3.67;;;0.40;99.90;;;1.07;100.00;-19763.25;5054652;28;20310;-72
2022/02/12 01:05:20;;;;;;;7.00;3.50;;;0.50;99.90;;;1.01;100.00;-19761.38;5054344;28;20725;-73
2022/02/12 01:07:48;;;;;;;13.07;7.37;;;0.40;99.90;;;1.05;100.00;-19762.72;5054037;28;20233;-71
2022/02/12 01:10:18;;;;;;;11.47;8.10;;;0.40;99.90;;;1.10;100.00;-19764.25;5054299;28;20300;-73
2022/02/12 01:12:46;;;;;;;11.07;6.00;;;0.40;99.90;;;1.15;100.00;-19766.16;5053671;28;20271;-73
2022/02/12 01:15:14;;;;;;;7.70;4.20;;;0.40;99.90;;;1.19;100.00;-19767.34;5054489;28;20197;-71
2022/02/12 01:17:42;;;;;;;6.63;3.30;;;0.40;99.90;;;1.00;100.00;-19760.84;5053636;28;20279;-73
2022/02/12 01:20:11;;;;;;;5.77;3.57;;;0.40;99.90;;;0.98;100.00;-19760.34;5054008;28;20312;-72
2022/02/12 01:22:40;;;;;;;7.67;5.67;;;0.40;99.90;;;0.92;100.00;-19758.13;5053467;28;20312;-71
2022/02/12 01:25:10;;;;;;;10.07;6.53;;;0.30;99.90;;;1.01;100.00;-19761.38;5053730;28;20255;-72
2022/02/12 01:27:39;;;;;;;9.87;7.53;;;0.30;99.90;;;0.84;100.00;-19755.56;5053553;28;20290;-72
2022/02/12 01:30:09;;;;;;;10.53;7.87;;;0.30;99.90;;;0.79;100.00;-19753.84;5053671;28;20246;-70
2022/02/12 01:32:39;;;;;;;10.97;7.93;;;0.30;99.90;;;0.96;100.00;-19759.47;5053696;28;20226;-72
2022/02/12 01:35:10;;;;;;;8.27;5.30;;;0.30;99.90;;;0.92;100.00;-19758.13;5053319;28;20783;-73
2022/02/12 01:37:40;;;;;;;7.43;4.50;;;0.30;99.90;;;0.94;100.00;-19758.78;5064372;28;20309;-73
2022/02/12 01:40:10;;;;;;;7.93;4.73;;;0.30;99.90;;;0.88;100.00;-19756.91;5073577;28;20270;-73
2022/02/12 01:42:40;;;;;;;8.97;3.80;;;0.20;99.90;;;0.84;100.00;-19755.38;5064820;28;20280;-73
2022/02/12 01:45:09;;;;;;;7.23;4.17;;;0.20;99.90;;;0.95;100.00;-19759.13;5053839;28;20222;-71
2022/02/12 01:47:37;;;;;;;6.60;2.90;;;0.20;99.90;;;1.01;100.00;-19761.38;5053417;28;20257;-73
2022/02/12 01:50:06;;;;;;;10.53;5.87;;;0.30;99.90;;;0.90;100.00;-19757.59;5053354;28;20277;-73
2022/02/12 01:52:36;;;;;;;11.33;7.37;;;0.20;99.90;;;0.92;100.00;-19758.13;5052504;28;20313;-73
2022/02/12 01:55:07;;;;;;;11.70;7.23;;;0.20;99.90;;;0.77;100.00;-19752.97;5053111;28;20293;-73
2022/02/12 01:57:36;;;;;;;9.60;6.03;;;0.20;99.90;;;0.86;100.00;-19756.22;5053432;28;20640;-73
2022/02/12 02:00:11;;;;;;;10.47;6.63;;;0.20;99.90;;;0.84;100.00;-19755.38;5053268;28;20198;-74
2022/02/12 02:02:39;;;;;;;10.03;5.97;;;0.10;99.90;;;0.73;100.00;-19751.63;5071266;28;20252;-75
2022/02/12 02:05:09;;;;;;;9.90;6.43;;;0.10;99.90;;;0.69;100.00;-19750.41;5072699;28;20689;-73
2022/02/12 02:07:38;;;;;;;13.30;6.90;;;0.10;99.90;;;0.79;100.00;-19753.84;5072993;28;20228;-73
2022/02/12 02:10:08;;;;;;;9.53;6.03;;;0.10;99.90;;;0.78;100.00;-19753.31;5075692;28;20221;-75
2022/02/12 02:12:36;;;;;;;9.10;4.90;;;0.10;99.90;;;0.83;100.00;-19755.03;5074050;28;20725;-75
2022/02/12 02:15:08;;;;;;;8.87;7.10;;;0.10;99.90;;;0.74;100.00;-19751.97;5074161;28;20222;-74
2022/02/12 02:17:36;;;;;;;9.20;6.27;;;0.10;99.90;;;0.69;100.00;-19750.25;5073208;28;20312;-74
2022/02/12 02:20:08;;;;;;;9.80;6.43;;;0.10;99.90;;;0.78;100.00;-19753.50;5072904;28;20612;-73
2022/02/12 02:22:50;;;;;;;9.60;6.07;;;0.10;99.90;;;0.72;100.00;-19751.44;5074012;28;20252;-75
2022/02/12 02:25:19;;;;;;;13.97;6.40;;;0.00;99.90;;;0.70;100.00;-19750.75;5072981;28;20253;-72
2022/02/12 02:27:47;;;;;;;10.80;6.50;;;0.00;99.90;;;0.69;100.00;-19750.41;5072367;28;20231;-72
2022/02/12 02:30:17;;;;;;;10.77;6.83;;;0.00;99.90;;;0.69;100.00;-19750.41;5074049;28;20201;-77
2022/02/12 02:32:46;;;;;;;9.73;7.00;;;0.00;99.90;;;0.64;100.00;-19748.72;5074291;28;20274;-77
2022/02/12 02:35:18;;;;;;;13.27;8.97;;;0.00;99.90;;;0.69;100.00;-19750.41;5074662;28;20260;-77
2022/02/12 02:37:49;;;;;;;10.53;7.37;;;-0.10;99.90;;;0.53;100.00;-19744.78;5073472;28;20273;-77
2022/02/12 02:40:20;;;;;;;17.23;10.20;;;-0.10;99.90;;;0.41;100.00;-19740.84;5053364;28;20717;-74
2022/02/12 02:42:51;;;;;;;15.03;9.60;;;-0.10;99.90;;;0.27;100.00;-19735.88;5064467;28;20229;-77
2022/02/12 02:45:20;;;;;;;15.43;7.97;;;-0.20;99.90;;;0.19;100.00;-19733.16;5074661;28;20281;-77
2022/02/12 02:47:48;;;;;;;10.33;5.67;;;-0.30;99.90;;;0.46;100.00;-19742.56;5074120;28;20220;-74
2022/02/12 02:56:02;;;;;;;9.07;3.73;;;-0.20;99.90;;;0.48;100.00;-19743.25;5072374;28;20253;-78
2022/02/12 02:58:37;;;;;;;7.60;3.63;;;-0.20;99.90;;;0.46;100.00;-19742.38;5072752;28;20622;-77
2022/02/12 03:01:08;;;;;;;7.93;4.70;;;-0.20;99.90;;;0.51;100.00;-19744.09;5072500;28;20575;-77
2022/02/12 03:03:38;;;;;;;9.43;4.93;;;-0.20;99.90;;;0.63;100.00;-19748.38;5071207;28;20189;-76
2022/02/12 03:06:07;;;;;;;6.23;5.03;;;-0.20;99.90;;;0.61;100.00;-19747.69;5072725;28;20310;-72
2022/02/12 03:08:37;;;;;;;8.13;4.80;;;-0.20;99.90;;;0.46;100.00;-19742.56;5071932;28;20333;-76
2022/02/12 03:11:09;;;;;;;10.67;5.53;;;-0.20;99.90;;;0.49;100.00;-19743.41;5071994;28;20264;-76
2022/02/12 03:13:39;;;;;;;7.27;4.40;;;-0.20;99.90;;;0.33;100.00;-19737.94;5072008;28;20741;-77
2022/02/12 03:16:09;;;;;;;7.90;4.10;;;-0.20;99.90;;;0.54;100.00;-19745.13;5071743;28;20734;-79
2022/02/12 03:18:39;;;;;;;6.23;4.00;;;-0.20;99.90;;;0.30;100.00;-19736.91;5071969;28;20212;-77
2022/02/12 03:21:07;;;;;;;10.40;4.23;;;-0.20;99.90;;;0.37;100.00;-19739.47;5072561;28;20233;-77
2022/02/12 03:23:37;;;;;;;9.10;5.00;;;-0.20;99.90;;;0.47;100.00;-19742.72;5071774;28;20719;-77
2022/02/12 03:26:06;;;;;;;6.87;4.37;;;-0.20;99.90;;;0.53;100.00;-19744.78;5071721;28;20229;-78
2022/02/12 03:28:34;;;;;;;6.73;4.20;;;-0.20;99.90;;;0.58;100.00;-19746.66;5071612;28;20232;-78
2022/02/12 03:31:02;;;;;;;14.33;11.40;;;-0.20;99.90;;;0.51;100.00;-19744.09;5071778;28;20278;-77
2022/02/12 03:33:30;;;;;;;15.00;13.07;;;-0.20;99.90;;;0.49;100.00;-19743.41;5072089;28;20248;-77
2022/02/12 03:35:58;;;;;;;11.57;7.63;;;-0.20;99.90;;;0.42;100.00;-19741.00;5056776;28;20356;-77
2022/02/12 03:38:28;;;;;;;11.87;6.10;;;-0.20;99.90;;;0.43;100.00;-19741.53;5069185;28;20226;-77
2022/02/12 03:41:01;;;;;;;9.17;5.80;;;-0.20;99.90;;;0.40;100.00;-19740.34;5071519;28;20312;-77
2022/02/12 03:43:33;;;;;;;10.43;6.03;;;-0.30;99.90;;;0.35;100.00;-19738.78;5071497;28;20264;-77
2022/02/12 03:46:02;;;;;;;11.80;7.67;;;-0.30;99.90;;;0.38;100.00;-19739.66;5071525;28;20840;-76
2022/02/12 03:48:30;;;;;;;8.87;6.23;;;-0.30;99.90;;;0.24;100.00;-19735.03;5071627;28;20202;-76
2022/02/12 03:50:58;;;;;;;7.47;4.37;;;-0.30;99.90;;;0.22;100.00;-19734.34;5077130;28;20197;-77
2022/02/12 03:53:27;;;;;;;7.73;4.07;;;-0.40;99.90;;;0.26;100.00;-19735.72;5071890;28;20248;-76
2022/02/12 03:55:55;;;;;;;5.57;2.80;;;-0.30;99.90;;;0.14;100.00;-19731.59;5071710;28;20312;-76
2022/02/12 03:58:24;;;;;;;4.30;2.50;;;-0.40;99.90;;;0.15;100.00;-19731.78;5071551;28;20656;-75
2022/02/12 04:00:52;;;;;;;9.07;5.40;;;-0.40;99.90;;;0.36;100.00;-19739.13;5071795;28;20310;-77
2022/02/12 04:03:21;;;;;;;13.73;6.73;;;-0.40;99.90;;;0.12;100.00;-19730.75;5072051;28;20730;-77
2022/02/12 04:05:49;;;;;;;9.37;6.13;;;-0.40;99.90;;;0.12;100.00;-19730.75;5071139;28;20312;-76
2022/02/12 04:08:18;;;;;;;10.00;7.27;;;-0.40;99.90;;;0.27;100.00;-19735.88;5071477;28;20258;-77
2022/02/12 04:10:49;;;;;;;8.03;5.57;;;-0.40;99.90;;;0.07;100.00;-19729.06;5071069;28;20280;-77
2022/02/12 04:13:18;;;;;;;8.27;4.97;;;-0.40;99.90;;;0.28;100.00;-19736.41;5071533;28;20221;-76
2022/02/12 04:15:48;;;;;;;6.10;3.90;;;-0.40;99.90;;;0.22;100.00;-19734.34;5071312;28;20259;-76
2022/02/12 04:18:17;;;;;;;9.37;3.10;;;-0.40;99.90;;;0.31;100.00;-19737.25;5072231;28;20265;-76
2022/02/12 04:20:46;;;;;;;4.43;2.80;;;-0.40;99.90;;;0.13;100.00;-19731.09;5071651;28;20304;-76
2022/02/12 04:23:14;;;;;;;6.37;3.10;;;-0.40;99.90;;;0.14;100.00;-19731.44;5071259;28;20243;-77
2022/02/12 04:25:43;;;;;;;7.10;3.20;;;-0.50;99.90;;;0.26;100.00;-19735.72;5071318;28;20308;-77
2022/02/12 04:28:12;;;;;;;5.03;2.30;;;-0.50;99.90;;;0.39;100.00;-19740.16;5071462;28;20273;-79
2022/02/12 04:30:41;;;;;;;7.70;2.60;;;-0.40;99.90;;;0.31;100.00;-19737.44;5068036;28;20298;-77
2022/02/12 04:33:12;;;;;;;5.63;2.93;;;-0.40;99.90;;;0.43;100.00;-19741.34;5051321;28;20203;-76
2022/02/12 04:35:41;;;;;;;9.10;4.90;;;-0.40;99.90;;;0.35;100.00;-19738.63;5050596;28;20233;-76
2022/02/12 04:38:09;;;;;;;14.83;10.10;;;-0.40;99.90;;;0.21;100.00;-19734.00;5066152;28;20253;-77
2022/02/12 04:40:37;;;;;;;11.77;9.93;;;-0.40;99.90;;;0.16;100.00;-19732.28;5071152;28;20263;-77
2022/02/12 04:43:05;;;;;;;6.63;6.03;;;-0.40;99.90;;;0.24;100.00;-19734.88;5070646;28;20307;-76
2022/02/12 04:45:33;;;;;;;8.53;5.87;;;-0.40;99.90;;;0.14;100.00;-19731.44;5071127;28;20653;-77
2022/02/12 04:48:01;;;;;;;10.30;6.73;;;-0.50;99.90;;;0.28;100.00;-19736.41;5071691;28;20229;-77
2022/02/12 04:50:33;;;;;;;8.03;6.33;;;-0.50;99.90;;;0.35;100.00;-19738.63;5070727;28;20237;-76
2022/02/12 04:53:02;;;;;;;10.00;7.17;;;-0.40;99.90;;;0.41;100.00;-19740.84;5070768;28;20222;-76
2022/02/12 04:55:30;;;;;;;10.67;6.40;;;-0.40;99.90;;;0.13;100.00;-19731.28;5071046;28;20224;-77
2022/02/12 04:57:58;;;;;;;11.13;6.73;;;-0.50;99.90;;;0.05;100.00;-19728.53;5070683;28;20279;-75
2022/02/12 05:00:26;;;;;;;13.63;8.87;;;-0.50;99.90;;;0.18;100.00;-19732.81;5071204;28;20282;-76
2022/02/12 05:02:54;;;;;;;9.07;7.93;;;-0.50;99.90;;;0.23;100.00;-19734.53;5071045;28;20289;-77
2022/02/12 05:05:22;;;;;;;12.00;8.07;;;-0.50;99.90;;;-0.07;100.00;-19724.59;5070591;28;20288;-77
2022/02/12 05:07:51;;;;;;;13.27;9.33;;;-0.50;99.90;;;-0.23;100.00;-19719.13;5070339;28;20260;-77
2022/02/12 05:10:20;;;;;;;13.17;9.33;;;-0.60;99.90;;;-0.28;100.00;-19717.41;5070719;28;20768;-77
2022/02/12 05:12:47;;;;;;;13.63;6.37;;;-0.70;99.90;;;-0.25;100.00;-19718.44;5070189;28;20316;-77
2022/02/12 05:15:16;;;;;;;10.93;5.80;;;-0.80;99.90;;;-0.18;100.00;-19720.66;5070898;28;20241;-76
2022/02/12 05:17:44;;;;;;;8.93;4.47;;;-0.70;99.90;;;-0.02;100.00;-19726.31;5070302;28;20237;-75
2022/02/12 05:20:12;;;;;;;7.73;3.77;;;-0.70;99.90;;;-0.08;100.00;-19724.25;5070352;28;20254;-77
2022/02/12 05:22:40;;;;;;;8.53;3.73;;;-0.70;99.90;;;-0.04;100.00;-19725.47;5069813;28;20748;-77
2022/02/12 05:25:10;;;;;;;8.70;3.97;;;-0.70;99.90;;;-0.16;100.00;-19721.53;5070690;28;20723;-75
2022/02/12 05:27:38;;;;;;;6.77;3.70;;;-0.70;99.90;;;-0.02;100.00;-19726.16;5063502;28;20234;-75
2022/02/12 05:30:07;;;;;;;7.07;3.67;;;-0.70;99.90;;;-0.08;100.00;-19724.25;5054562;28;20233;-77
2022/02/12 05:32:35;;;;;;;7.50;4.00;;;-0.70;99.90;;;0.06;100.00;-19728.69;5054805;28;20261;-76
2022/02/12 05:35:05;;;;;;;6.37;3.60;;;-0.70;99.90;;;-0.01;100.00;-19726.66;5054680;28;20632;-76
2022/02/12 05:37:33;;;;;;;5.80;2.90;;;-0.70;99.90;;;0.02;100.00;-19727.50;5063849;28;20252;-74
2022/02/12 05:40:01;;;;;;;9.00;3.50;;;-0.70;99.90;;;0.00;100.00;-19727.00;5073841;28;20224;-77
2022/02/12 05:42:30;;;;;;;6.97;3.33;;;-0.70;99.90;;;0.08;100.00;-19729.56;5073419;28;20745;-75
2022/02/12 05:44:58;;;;;;;5.40;3.20;;;-0.70;99.90;;;-0.10;100.00;-19723.41;5074029;28;20633;-76
2022/02/12 05:47:26;;;;;;;5.10;3.27;;;-0.70;99.90;;;-0.18;100.00;-19720.84;5073281;28;20324;-76
2022/02/12 05:49:55;;;;;;;9.73;3.43;;;-0.80;99.90;;;0.05;100.00;-19728.53;5073490;28;20729;-76
2022/02/12 05:52:23;;;;;;;6.73;3.57;;;-0.70;99.90;;;-0.01;100.00;-19726.66;5073790;28;20221;-76
2022/02/12 05:54:51;;;;;;;9.37;3.67;;;-0.70;99.90;;;0.06;100.00;-19728.69;5073687;28;20248;-76
2022/02/12 05:57:19;;;;;;;6.70;3.20;;;-0.70;99.90;;;-0.07;100.00;-19724.44;5074155;28;20235;-77
2022/02/12 05:59:48;;;;;;;8.60;3.70;;;-0.70;99.90;;;0.05;100.00;-19728.53;5073622;28;20226;-77
2022/02/12 06:02:16;;;;;;;10.83;3.40;;;-0.70;99.90;;;-0.10;100.00;-19723.56;5073127;28;20315;-77
2022/02/12 06:04:44;;;;;;;4.43;3.10;;;-0.70;99.90;;;-0.20;100.00;-19720.16;5073203;28;20228;-78
2022/02/12 06:07:12;;;;;;;7.97;3.27;;;-0.80;99.90;;;-0.29;100.00;-19717.06;5073547;28;20255;-77
2022/02/12 06:09:41;;;;;;;8.73;3.83;;;-0.80;99.90;;;-0.02;100.00;-19726.31;5073299;28;20246;-77
2022/02/12 06:12:10;;;;;;;7.20;3.83;;;-0.80;99.90;;;-0.01;100.00;-19726.66;5073911;28;20645;-73
2022/02/12 06:14:38;;;;;;;8.83;3.47;;;-0.80;99.90;;;0.17;100.00;-19732.63;5073230;28;20229;-76
2022/02/12 06:17:08;;;;;;;6.07;4.30;;;-0.70;99.90;;;0.20;100.00;-19733.66;5073510;28;20429;-76
2022/02/12 06:19:36;;;;;;;12.23;8.23;;;-0.70;99.90;;;0.24;100.00;-19735.03;5072730;28;20236;-77
2022/02/12 06:22:05;;;;;;;14.60;11.43;;;-0.60;99.90;;;0.22;100.00;-19734.19;5073201;28;20796;-77
2022/02/12 06:24:33;;;;;;;17.40;12.20;;;-0.60;99.90;;;-0.03;100.00;-19725.97;5058364;28;20621;-77
2022/02/12 06:27:04;;;;;;;14.07;11.73;;;-0.60;99.90;;;-0.23;100.00;-19719.13;5053294;28;20759;-78
2022/02/12 06:29:32;;;;;;;13.13;10.77;;;-0.70;99.90;;;-0.05;100.00;-19725.13;5052816;28;20306;-76
2022/02/12 06:32:00;;;;;;;11.80;7.07;;;-0.70;99.90;;;-0.02;100.00;-19726.31;5053073;28;20241;-77
2022/02/12 06:34:30;;;;;;;12.07;5.07;;;-0.80;99.90;;;0.14;100.00;-19731.44;5053321;28;20316;-76
2022/02/12 06:37:01;;;;;;;7.87;5.60;;;-0.70;99.90;;;0.15;100.00;-19731.97;5059217;28;20234;-77
2022/02/12 06:39:30;;;;;;;8.83;4.80;;;-0.70;99.90;;;0.02;100.00;-19727.50;5073171;28;20288;-78
2022/02/12 06:41:58;;;;;;;10.17;4.50;;;-0.70;99.90;;;-0.17;100.00;-19721.00;5074065;28;20231;-77
2022/02/12 06:44:26;;;;;;;8.37;4.90;;;-0.70;99.90;;;-0.25;100.00;-19718.44;5072605;28;20340;-77
2022/02/12 06:46:54;;;;;;;10.00;6.40;;;-0.80;99.90;;;-0.30;100.00;-19716.75;5072605;28;20236;-77
2022/02/12 06:49:23;;;;;;;12.40;7.43;;;-0.80;99.90;;;-0.28;100.00;-19717.25;5072761;28;20311;-78
2022/02/12 06:51:52;;;;;;;7.17;6.10;;;-0.80;99.90;;;-0.32;100.00;-19716.06;5072444;28;20467;-76
2022/02/12 06:54:20;;;;;;;9.23;5.87;;;-0.80;99.90;;;-0.19;100.00;-19720.50;5072875;28;20619;-77
2022/02/12 06:56:48;;;;;;;12.73;5.37;;;-0.80;99.90;;;-0.16;100.00;-19721.53;5072193;28;20220;-76
2022/02/12 06:59:16;;;;;;;9.67;4.37;;;-0.80;99.90;;;0.07;100.00;-19729.06;5071994;28;20244;-77
2022/02/12 07:01:45;;;;;;;7.73;4.20;;;-0.70;99.90;;;0.33;100.00;-19737.94;5072719;28;20574;-78
2022/02/12 07:04:13;;;;;;;7.00;4.10;;;-0.60;99.90;;;0.43;100.00;-19741.34;5072779;28;20308;-77
2022/02/12 07:06:42;;;;;;;8.17;4.17;;;-0.50;99.90;;;0.28;100.00;-19736.22;5072305;28;20220;-78
2022/02/12 07:09:12;;;;;;;9.50;4.07;;;-0.40;99.90;;;0.27;100.00;-19736.06;5077929;28;20255;-74
2022/02/12 07:11:41;;;;;;;8.83;3.87;;;-0.40;99.90;;;0.24;100.00;-19735.03;5074786;28;20261;-78
2022/02/12 07:14:09;;;;;;;11.33;4.20;;;-0.40;99.90;;;0.46;100.00;-19742.56;5073340;28;20244;-77
2022/02/12 07:16:38;;;;;;;8.07;4.10;;;-0.30;99.90;;;0.57;100.00;-19746.16;5072850;28;20233;-76
2022/02/12 07:19:07;;;;;;;9.97;4.63;;;-0.20;99.90;;;0.64;100.00;-19748.72;5072882;28;20222;-77
2022/02/12 07:21:35;;;;;;;8.10;3.97;;;-0.10;99.90;;;0.71;100.00;-19751.09;5053008;28;20250;-79
2022/02/12 07:24:03;;;;;;;9.57;3.80;;;0.00;99.90;;;0.67;100.00;-19749.75;5055409;28;20232;-78
2022/02/12 07:26:33;;;;;;;7.20;4.73;;;0.00;99.90;;;0.68;100.00;-19750.06;5056376;28;20225;-79
2022/02/12 07:29:01;;;;;;;5.33;3.73;;;0.10;99.90;;;0.89;100.00;-19757.09;5055769;28;20229;-79
2022/02/12 07:31:32;;;;;;;10.37;4.10;;;0.20;99.90;;;0.90;100.00;-19757.59;5054372;28;20267;-79
2022/02/12 07:34:00;;;;;;;6.57;3.77;;;0.30;99.90;;;1.06;100.00;-19762.91;5054439;28;20228;-78
2022/02/12 07:36:28;;;;;;;6.87;3.93;;;0.40;99.90;;;1.17;100.00;-19766.66;5056110;28;20288;-78
2022/02/12 07:38:56;;;;;;;7.43;3.73;;;0.50;99.90;;;1.50;100.00;-19777.94;5074071;28;20205;-78
2022/02/12 07:41:26;;;;;;;6.50;3.10;;;0.60;99.90;;;1.32;100.00;-19771.78;5072891;28;20226;-77
2022/02/12 07:43:55;;;;;;;6.47;3.37;;;0.60;99.90;;;1.32;100.00;-19771.78;5073576;28;20735;-78
2022/02/12 07:46:23;;;;;;;8.77;3.80;;;0.70;99.90;;;1.41;100.00;-19774.88;5073515;28;20220;-77
2022/02/12 07:48:51;;;;;;;8.57;3.87;;;0.70;99.90;;;1.56;100.00;-19780.00;5072569;28;20308;-76
2022/02/12 07:51:19;;;;;;;6.60;3.80;;;0.90;99.90;;;1.70;100.00;-19784.59;5072485;28;20301;-78
2022/02/12 07:53:47;;;;;;;7.00;3.70;;;1.00;99.90;;;1.84;100.00;-19789.56;5072930;28;20220;-79
2022/02/12 07:56:16;;;;;;;7.50;4.03;;;1.20;99.90;;;1.95;100.00;-19793.16;5072546;28;20312;-76
2022/02/12 07:58:45;;;;;;;7.43;3.43;;;1.30;99.90;;;2.15;100.00;-19800.16;5072316;28;20730;-76
2022/02/12 08:01:15;;;;;;;7.77;3.63;;;1.40;99.90;;;2.42;100.00;-19809.41;5072529;28;20224;-78
2022/02/12 08:03:43;;;;;;;9.47;3.30;;;1.50;99.90;;;2.42;100.00;-19809.22;5072704;28;20688;-76
2022/02/12 08:08:55;;;;;;;6.57;3.20;;;1.80;99.90;;;2.99;100.00;-19828.72;5072035;28;20251;-80
2022/02/12 08:11:22;;;;;;;7.50;3.60;;;1.80;99.90;;;2.88;100.00;-19824.97;5072643;28;20228;-78
2022/02/12 08:13:51;;;;;;;7.97;3.67;;;1.90;99.90;;;2.90;100.00;-19825.47;5072412;28;20251;-78
2022/02/12 08:16:22;;;;;;;6.43;3.67;;;2.00;99.90;;;3.11;100.00;-19832.81;5071655;28;20772;-77
2022/02/12 08:18:50;;;;;;;6.67;3.10;;;2.20;99.90;;;3.39;100.00;-19842.41;5072548;28;20251;-78
2022/02/12 08:21:18;;;;;;;5.80;3.40;;;2.30;99.90;;;3.41;100.00;-19842.91;5072187;28;20189;-79
2022/02/12 08:23:46;;;;;;;7.07;3.63;;;2.40;99.90;;;3.52;100.00;-19846.66;5071146;28;20253;-75
2022/02/12 08:26:15;;;;;;;7.70;3.87;;;2.60;99.90;;;3.77;100.00;-19855.03;5071055;28;20316;-73
2022/02/12 08:28:43;;;;;;;7.40;3.10;;;2.70;99.90;;;3.93;100.00;-19860.69;5070618;28;20255;-76
2022/02/12 08:31:12;;;;;;;9.20;3.13;;;2.80;99.90;;;4.09;100.00;-19866.16;5070919;28;20221;-76
2022/02/12 08:33:42;;;;;;;5.73;3.13;;;3.00;99.90;;;4.19;100.00;-19869.41;5071183;28;20228;-74
2022/02/12 08:36:12;;;;;;;8.27;3.63;;;3.00;99.90;;;3.98;100.00;-19862.22;5071623;28;20252;-74
2022/02/12 08:38:40;;;;;;;4.80;2.70;;;3.00;99.90;;;3.93;100.00;-19860.69;5070269;28;20268;-72
2022/02/12 08:41:08;;;;;;;6.23;3.40;;;3.10;99.90;;;3.99;100.00;-19862.72;5071341;28;20638;-76
2022/02/12 08:43:36;;;;;;;7.83;3.23;;;3.10;99.90;;;4.14;100.00;-19867.69;5074311;28;20311;-73
2022/02/12 08:46:04;;;;;;;7.97;3.07;;;3.10;99.90;;;4.18;100.00;-19869.06;5071347;28;20598;-76
2022/02/12 08:48:32;;;;;;;8.07;3.90;;;3.00;99.90;;;4.23;100.00;-19870.78;5071337;28;20658;-77
2022/02/12 08:51:03;;;;;;;7.70;2.80;;;3.10;99.90;;;4.05;100.00;-19864.78;5071105;28;20248;-76
2022/02/12 08:53:31;;;;;;;5.73;2.87;;;3.10;99.90;;;4.21;100.00;-19870.09;5070506;28;20249;-76
2022/02/12 08:56:00;;;;;;;10.17;3.60;;;3.10;99.90;;;4.15;100.00;-19868.22;5070528;28;20227;-79
2022/02/12 08:58:28;;;;;;;7.40;3.00;;;3.20;99.90;;;4.35;100.00;-19874.88;5070582;28;20237;-76
2022/02/12 09:00:57;;;;;;;5.83;3.27;;;3.30;99.90;;;4.41;100.00;-19877.09;5070413;28;20253;-75
2022/02/12 09:03:25;;;;;;;5.27;2.87;;;3.40;99.90;;;4.46;100.00;-19878.81;5074373;28;20288;-75
2022/02/12 09:05:53;;;;;;;8.30;3.20;;;3.50;99.90;;;4.49;100.00;-19879.81;5074694;28;20249;-78
2022/02/12 09:08:22;;;;;;;7.50;2.60;;;3.40;99.90;;;4.49;100.00;-19879.81;5074290;28;20247;-74
2022/02/12 09:10:50;;;;;;;4.40;2.50;;;3.30;99.90;;;4.51;100.00;-19880.34;5074579;28;20235;-76
2022/02/12 09:13:18;;;;;;;5.07;2.27;;;3.40;99.90;;;4.44;100.00;-19878.13;5060301;28;20228;-77
2022/02/12 09:15:47;;;;;;;4.77;2.30;;;3.40;99.90;;;4.56;100.00;-19882.06;5054221;28;20585;-76
2022/02/12 09:18:15;;;;;;;7.73;2.27;;;3.50;99.90;;;4.56;100.00;-19882.22;5054726;28;20245;-75
2022/02/12 09:20:43;;;;;;;6.73;2.47;;;3.60;99.90;;;4.77;100.00;-19889.41;5054292;28;20783;-78
2022/02/12 09:23:12;;;;;;;4.43;2.20;;;3.70;99.90;;;4.81;100.00;-19890.78;5053811;28;20973;-77
2022/02/12 09:25:41;;;;;;;5.93;2.13;;;3.80;99.90;;;5.10;100.00;-19900.34;5054295;28;20228;-77
2022/02/12 09:28:09;;;;;;;4.77;2.10;;;4.00;99.90;;;5.07;100.00;-19899.31;5054271;28;20232;-77
2022/02/12 09:30:38;;;;;;;5.57;2.47;;;4.10;99.90;;;5.13;100.00;-19901.38;5054534;28;20285;-77
2022/02/12 09:33:06;;;;;;;8.37;2.00;;;4.20;99.90;;;5.30;100.00;-19907.19;5054676;28;20306;-78
2022/02/12 09:35:53;;;;;;;5.60;2.53;;;4.30;99.90;;;5.34;100.00;-19908.72;5054484;28;20292;-78
2022/02/12 09:38:21;;;;;;;6.40;2.20;;;4.40;99.90;;;5.37;100.00;-19909.75;5071114;28;20231;-77
2022/02/12 09:40:53;;;;;;;4.50;2.23;;;4.50;99.90;;;5.51;100.00;-19914.34;5074261;28;20249;-78
2022/02/12 09:43:24;;;;;;;4.83;2.10;;;4.60;99.90;;;5.81;96.75;-19924.78;5073614;28;20281;-77
2022/02/12 09:46:11;;;;;;;6.83;2.50;;;4.60;99.90;;;5.85;96.99;-19925.97;5074341;28;20244;-76
2022/02/12 09:48:40;;;;;;;6.27;1.93;;;4.70;99.90;;;5.92;97.26;-19928.38;5074065;28;20612;-78
2022/02/12 09:51:11;;;;;;;8.00;2.00;;;4.90;99.90;;;5.85;93.71;-19926.16;5074781;28;20206;-78
2022/02/12 09:53:39;;;;;;;4.17;2.10;;;4.90;99.90;;;5.83;96.07;-19925.31;5073393;28;20231;-77
2022/02/12 09:56:08;;;;;;;5.13;2.17;;;4.90;99.90;;;5.98;96.94;-19930.44;5073694;28;20762;-79
2022/02/12 09:58:37;;;;;;;4.67;1.93;;;4.90;99.90;;;5.93;94.93;-19928.72;5073618;28;20322;-77
2022/02/12 10:01:05;;;;;;;6.17;2.20;;;4.90;99.90;;;6.02;91.86;-19931.78;5073932;28;20653;-75
2022/02/12 10:03:33;;;;;;;7.03;1.93;;;4.90;99.90;;;5.89;90.82;-19927.34;5073413;28;20204;-79
2022/02/12 10:06:02;;;;;;;6.60;1.80;;;4.90;99.90;;;5.98;92.50;-19930.59;5070496;28;20343;-61
2022/02/12 10:08:36;;;;;;;5.30;1.80;;;4.90;99.90;;;6.05;91.99;-19932.81;5071825;28;20255;-62
2022/02/12 10:11:16;;;;;;;5.50;2.00;;;4.90;99.90;;;6.06;89.28;-19933.16;5072459;28;20303;-75
2022/02/12 10:13:44;;;;;;;5.87;1.53;;;5.00;99.90;;;5.96;88.28;-19929.91;5072164;28;20235;-70
2022/02/12 10:16:12;;;;;;;4.60;1.50;;;5.00;99.90;;;5.91;90.11;-19928.03;5072330;28;20306;-62
2022/02/12 10:18:40;;;;;;;4.87;1.70;;;4.80;99.90;;;6.05;89.14;-19932.97;5072130;28;20302;-63
2022/02/12 10:21:10;;;;;;;2.30;1.30;;;4.90;99.90;;;6.09;87.79;-19934.19;5072594;28;20528;-62
2022/02/12 10:23:42;;;;;;;4.37;1.50;;;5.00;99.90;;;6.17;84.58;-19936.91;5071651;28;20226;-62
2022/02/12 10:26:14;;;;;;;4.80;1.47;;;5.00;99.90;;;5.81;84.74;-19924.78;5072076;28;20224;-69
2022/02/12 10:28:46;;;;;;;4.57;1.53;;;4.90;99.90;;;5.85;85.27;-19925.97;5078651;28;20283;-77